Time;durP1;ratioP1;P1;durP2;ratioP2;P2;SDS_P1;SDS_P2;PMS_P1;PMS_P2;Temp;Humidity;BMP_temperature;BMP_pressure;BME280_temperature;BME280_humidity;BME280_pressure;Samples;Min_cycle;Max_cycle;Signal;HPM_P1;HPM_P2
2022/07/18 00:02:04;;;;;;;1.45;0.90;;;;;;;22.94;39.73;101039.78;5089526;28;20823;-77
2022/07/18 00:04:30;;;;;;;1.60;1.17;;;;;;;22.93;40.17;101040.06;5112868;28;20440;-78
2022/07/18 00:06:56;;;;;;;1.90;1.20;;;;;;;22.89;40.29;101037.13;5086298;28;20398;-78
2022/07/18 00:09:23;;;;;;;4.30;1.33;;;;;;;22.79;40.52;101036.56;5106063;28;20389;-78
2022/07/18 00:11:50;;;;;;;2.25;1.10;;;;;;;22.61;40.48;101036.38;5094079;28;20392;-77
2022/07/18 00:14:17;;;;;;;2.40;1.33;;;;;;;22.57;40.82;101046.41;5077912;28;20472;-77
2022/07/18 00:16:44;;;;;;;3.25;1.10;;;;;;;22.60;40.83;101037.50;5094634;28;20748;-77
2022/07/18 00:19:10;;;;;;;2.38;1.05;;;;;;;22.68;40.39;101034.03;5061775;28;20395;-78
2022/07/18 00:21:36;;;;;;;1.20;1.10;;;;;;;22.75;40.05;101041.91;5104838;28;20387;-78
2022/07/18 00:24:03;;;;;;;3.77;1.30;;;;;;;22.75;39.79;101041.91;5094437;28;20388;-77
2022/07/18 00:26:29;;;;;;;4.22;1.10;;;;;;;22.73;39.81;101033.91;5111685;28;20420;-77
2022/07/18 00:28:56;;;;;;;1.48;1.08;;;;;;;22.75;39.97;101041.91;5112466;28;20752;-77
2022/07/18 00:31:22;;;;;;;1.13;1.02;;;;;;;22.78;40.17;101037.69;5094200;28;20604;-77
2022/07/18 00:33:48;;;;;;;2.17;1.00;;;;;;;22.79;40.01;101034.59;5093230;28;20815;-78
2022/07/18 00:36:14;;;;;;;1.50;1.13;;;;;;;22.80;39.80;101032.66;5101849;28;20396;-77
2022/07/18 00:38:41;;;;;;;1.52;0.80;;;;;;;22.75;39.64;101037.16;5095135;28;20740;-77
2022/07/18 00:41:08;;;;;;;1.13;1.07;;;;;;;22.71;39.71;101032.59;5112363;28;20384;-77
2022/07/18 00:43:34;;;;;;;4.07;1.02;;;;;;;22.64;39.76;101027.47;5093679;28;20800;-77
2022/07/18 00:46:01;;;;;;;1.00;1.00;;;;;;;22.60;40.02;101031.97;5094196;28;20752;-78
2022/07/18 00:48:27;;;;;;;1.90;1.00;;;;;;;22.50;40.12;101034.97;5094383;28;20744;-77
2022/07/18 00:50:53;;;;;;;1.67;1.00;;;;;;;22.40;40.39;101037.13;5077694;28;20389;-77
2022/07/18 00:53:18;;;;;;;2.43;1.17;;;;;;;22.41;40.47;101036.84;5107684;28;20477;-77
2022/07/18 00:55:46;;;;;;;1.45;1.20;;;;;;;22.44;40.46;101035.38;5094794;28;20482;-78
2022/07/18 00:58:14;;;;;;;2.00;1.10;;;;;;;22.45;40.30;101031.50;5095014;28;20392;-77
2022/07/18 01:03:26;;;;;;;1.43;0.83;;;;;;;22.43;40.33;101037.31;5112630;28;20500;-78
2022/07/18 01:05:52;;;;;;;1.38;1.10;;;;;;;22.43;40.34;101042.03;5094393;28;20450;-78
2022/07/18 01:08:18;;;;;;;1.43;1.30;;;;;;;22.41;40.28;101036.84;5112652;28;20380;-77
2022/07/18 01:10:45;;;;;;;1.27;1.20;;;;;;;22.40;40.33;101028.84;5076994;28;20456;-78
2022/07/18 01:13:12;;;;;;;1.80;1.30;;;;;;;22.42;40.13;101030.19;5075006;28;20401;-77
2022/07/18 01:15:38;;;;;;;0.88;0.88;;;;;;;22.42;40.03;101027.44;5083654;28;20475;-77
2022/07/18 01:18:04;;;;;;;1.30;1.10;;;;;;;22.40;39.92;101026.91;5113465;28;20387;-78
2022/07/18 01:20:31;;;;;;;3.13;1.13;;;;;;;22.43;39.71;101033.75;5094754;28;20389;-77
2022/07/18 01:23:00;;;;;;;0.90;0.88;;;;;;;22.42;39.66;101027.44;5094649;28;20384;-77
2022/07/18 01:25:27;;;;;;;2.63;1.40;;;;;;;22.45;40.00;101032.34;5094259;28;20404;-77
2022/07/18 01:27:55;;;;;;;2.20;1.17;;;;;;;22.37;40.41;101029.47;5099969;28;20390;-77
2022/07/18 01:30:21;;;;;;;3.33;1.40;;;;;;;22.30;40.88;101031.81;5089338;28;20394;-77
2022/07/18 01:32:56;;;;;;;2.80;1.20;;;;;;;22.20;41.11;101030.91;5111039;28;20483;-78
2022/07/18 01:35:24;;;;;;;2.58;1.27;;;;;;;22.08;41.55;101030.63;5089998;28;20711;-77
2022/07/18 01:37:56;;;;;;;3.45;1.70;;;;;;;22.00;41.62;101033.28;5114853;28;20376;-78
2022/07/18 01:40:23;;;;;;;1.10;0.95;;;;;;;21.92;41.69;101023.78;5097767;28;20781;-78
2022/07/18 01:42:49;;;;;;;1.30;1.17;;;;;;;21.89;41.75;101021.66;5116646;28;20382;-77
2022/07/18 01:45:16;;;;;;;2.33;1.17;;;;;;;21.86;41.99;101022.22;5110974;28;20744;-78
2022/07/18 01:47:45;;;;;;;1.83;1.20;;;;;;;21.76;42.53;101024.38;5098360;28;20397;-78
2022/07/18 01:50:14;;;;;;;1.70;1.10;;;;;;;21.62;42.85;101022.41;5116197;28;20376;-78
2022/07/18 01:52:42;;;;;;;1.47;1.17;;;;;;;21.50;43.27;101032.31;5083273;28;20404;-78
2022/07/18 01:55:11;;;;;;;1.90;1.13;;;;;;;21.43;43.47;101023.59;5097986;28;20396;-78
2022/07/18 01:57:40;;;;;;;3.17;1.50;;;;;;;21.34;43.83;101034.50;5116781;28;20385;-78
2022/07/18 02:00:11;;;;;;;1.15;1.15;;;;;;;21.25;44.04;101033.56;5097505;28;20821;-78
2022/07/18 02:02:38;;;;;;;1.30;1.20;;;;;;;21.21;43.99;101036.09;5089080;28;20476;-78
2022/07/18 02:07:41;;;;;;;1.77;1.23;;;;;;;21.15;44.63;101025.47;5033249;28;20427;-71
2022/07/18 02:10:12;;;;;;;2.90;1.30;;;;;;;21.16;44.60;101022.41;5033476;28;20457;-71
2022/07/18 02:12:39;;;;;;;1.83;1.63;;;;;;;21.19;44.41;101027.31;5034852;28;20410;-71
2022/07/18 02:15:05;;;;;;;2.40;1.10;;;;;;;21.20;44.28;101025.41;5033442;28;20750;-71
2022/07/18 02:17:31;;;;;;;2.30;1.13;;;;;;;21.23;44.22;101022.03;5034536;28;20898;-72
2022/07/18 02:19:56;;;;;;;4.00;1.73;;;;;;;21.18;44.05;101022.94;5034622;28;20399;-72
2022/07/18 02:22:21;;;;;;;1.77;1.40;;;;;;;21.17;44.07;101020.47;5034823;28;20398;-72
2022/07/18 02:24:47;;;;;;;1.33;1.25;;;;;;;21.21;44.07;101022.31;5034478;28;20773;-72
2022/07/18 02:27:12;;;;;;;2.43;0.97;;;;;;;21.22;44.01;101014.88;5034588;28;20391;-72
2022/07/18 02:29:37;;;;;;;4.50;1.50;;;;;;;21.22;43.94;101017.63;5034445;28;20411;-72
2022/07/18 02:32:04;;;;;;;1.23;1.13;;;;;;;21.20;44.00;101014.38;5034408;28;20406;-72
2022/07/18 02:34:29;;;;;;;1.23;1.13;;;;;;;21.28;43.97;101012.84;5034321;28;20395;-72
2022/07/18 02:36:54;;;;;;;1.85;1.35;;;;;;;21.29;43.98;101015.31;5039736;28;20882;-72
2022/07/18 02:39:20;;;;;;;1.60;1.10;;;;;;;21.30;43.69;101016.94;5034222;28;20395;-71
2022/07/18 02:41:46;;;;;;;5.50;1.50;;;;;;;21.26;43.58;101015.09;5034343;28;20399;-71
2022/07/18 02:44:12;;;;;;;1.97;1.10;;;;;;;21.16;43.58;101016.91;5034223;28;20391;-72
2022/07/18 02:46:37;;;;;;;0.95;0.95;;;;;;;21.13;43.54;101022.19;5034222;28;20484;-72
2022/07/18 02:49:02;;;;;;;1.17;0.93;;;;;;;21.04;43.71;101016.50;5033248;28;20383;-72
2022/07/18 02:51:28;;;;;;;2.40;1.20;;;;;;;20.97;43.83;101021.63;5034030;28;20423;-72
2022/07/18 02:53:54;;;;;;;2.17;1.13;;;;;;;20.93;44.12;101020.56;5044610;28;20430;-72
2022/07/18 02:56:19;;;;;;;3.87;1.37;;;;;;;20.87;44.24;101018.19;5033923;28;20395;-72
2022/07/18 02:58:45;;;;;;;1.13;1.13;;;;;;;20.84;44.29;101022.38;5034066;28;20383;-72
2022/07/18 03:01:10;;;;;;;1.30;1.20;;;;;;;20.80;44.27;101028.78;5033840;28;20410;-72
2022/07/18 03:03:35;;;;;;;2.30;1.30;;;;;;;20.80;44.26;101026.84;5033901;28;20383;-71
2022/07/18 03:06:01;;;;;;;3.20;1.50;;;;;;;20.77;44.31;101027.44;5033873;28;20437;-71
2022/07/18 03:08:26;;;;;;;1.45;1.10;;;;;;;20.77;44.26;101027.44;5033730;28;20391;-72
2022/07/18 03:10:51;;;;;;;1.77;1.10;;;;;;;20.76;44.40;101023.03;5034549;28;20391;-71
2022/07/18 03:13:17;;;;;;;3.23;1.30;;;;;;;20.75;44.18;101026.91;5033686;28;20932;-72
2022/07/18 03:15:42;;;;;;;1.00;1.00;;;;;;;20.76;44.22;101016.69;5033677;28;20405;-72
2022/07/18 03:18:07;;;;;;;1.77;1.53;;;;;;;20.76;44.47;101019.47;5033367;28;20449;-72
2022/07/18 03:20:33;;;;;;;1.27;1.17;;;;;;;20.72;44.33;101019.25;5033559;28;20421;-72
2022/07/18 03:22:58;;;;;;;3.75;1.30;;;;;;;20.66;44.40;101014.94;5033483;28;20398;-72
2022/07/18 03:25:24;;;;;;;1.20;1.10;;;;;;;20.59;44.57;101019.97;5032444;28;20415;-72
2022/07/18 03:27:50;;;;;;;1.38;1.20;;;;;;;20.52;44.78;101022.28;5033055;28;20395;-72
2022/07/18 03:30:15;;;;;;;1.47;1.37;;;;;;;20.42;45.11;101016.91;5033290;28;20388;-72
2022/07/18 03:32:40;;;;;;;1.35;1.02;;;;;;;20.32;45.20;101019.84;5044660;28;20427;-72
2022/07/18 03:35:06;;;;;;;1.63;1.00;;;;;;;20.27;45.30;101028.97;5032851;28;20422;-72
2022/07/18 03:37:32;;;;;;;2.00;1.48;;;;;;;20.16;45.70;101021.91;5033802;28;20417;-72
2022/07/18 03:39:58;;;;;;;1.00;1.00;;;;;;;20.12;45.86;101015.41;5031992;28;20391;-71
2022/07/18 03:42:23;;;;;;;1.23;1.23;;;;;;;20.00;46.06;101014.97;5033208;28;20379;-72
2022/07/18 03:44:48;;;;;;;4.10;1.40;;;;;;;19.96;46.51;101012.00;5044340;28;20443;-72
2022/07/18 03:47:13;;;;;;;1.50;1.03;;;;;;;19.99;46.91;101018.88;5033072;28;20407;-72
2022/07/18 03:49:39;;;;;;;2.77;1.20;;;;;;;19.95;47.43;101013.13;5032839;28;20728;-72
2022/07/18 03:52:05;;;;;;;3.10;1.30;;;;;;;20.02;47.34;101016.31;5030634;28;20442;-72
2022/07/18 03:54:30;;;;;;;2.40;1.50;;;;;;;20.03;47.54;101020.72;5037927;28;20410;-72
2022/07/18 03:56:55;;;;;;;2.73;1.50;;;;;;;20.09;47.35;101015.94;5032942;28;20445;-71
2022/07/18 03:59:21;;;;;;;1.83;1.53;;;;;;;20.12;47.35;101021.69;5032715;28;20398;-72
2022/07/18 04:01:46;;;;;;;3.10;1.70;;;;;;;20.17;47.07;101016.13;5032879;28;20441;-72
2022/07/18 04:04:11;;;;;;;5.27;1.97;;;;;;;20.24;46.92;101015.78;5032401;28;20395;-72
2022/07/18 04:06:37;;;;;;;4.03;1.57;;;;;;;20.32;46.56;101012.38;5028664;28;20921;-72
2022/07/18 04:09:02;;;;;;;1.67;1.53;;;;;;;20.37;46.00;101011.50;5029094;28;20481;-72
2022/07/18 04:11:27;;;;;;;4.55;1.33;;;;;;;20.35;45.50;101017.28;5038122;28;20412;-71
2022/07/18 04:13:53;;;;;;;5.27;1.37;;;;;;;20.39;44.89;101021.09;5031012;28;20413;-72
2022/07/18 04:16:20;;;;;;;1.40;1.30;;;;;;;20.40;44.52;101020.00;5029656;28;20486;-71
2022/07/18 04:18:46;;;;;;;1.30;1.20;;;;;;;20.42;44.06;101020.50;5032091;28;20405;-71
2022/07/18 04:21:12;;;;;;;3.10;1.47;;;;;;;20.47;43.95;101031.47;5038165;28;20466;-72
2022/07/18 04:23:38;;;;;;;1.30;1.20;;;;;;;20.43;43.75;101035.09;5030052;28;20439;-71
2022/07/18 04:26:03;;;;;;;3.00;1.42;;;;;;;20.46;43.87;101032.56;5030893;28;20505;-72
2022/07/18 04:28:29;;;;;;;1.30;1.20;;;;;;;20.44;43.68;101031.22;5035697;28;20409;-72
2022/07/18 04:30:54;;;;;;;2.50;1.45;;;;;;;20.44;43.52;101020.22;5032764;28;20391;-71
2022/07/18 04:33:20;;;;;;;8.10;2.13;;;;;;;20.37;43.79;101028.00;5034978;28;20410;-72
2022/07/18 04:35:45;;;;;;;1.50;1.40;;;;;;;20.42;43.82;101020.50;5032809;28;20917;-72
2022/07/18 04:38:10;;;;;;;2.42;1.60;;;;;;;20.43;43.78;101024.06;5030613;28;20430;-72
2022/07/18 04:40:37;;;;;;;1.40;1.20;;;;;;;20.48;43.59;101033.06;5032096;28;20399;-71
2022/07/18 04:43:03;;;;;;;2.88;1.55;;;;;;;20.50;43.46;101030.03;5034275;28;20496;-72
2022/07/18 04:45:28;;;;;;;1.30;1.20;;;;;;;20.51;43.50;101037.19;5039561;28;20426;-72
2022/07/18 04:47:55;;;;;;;2.33;1.30;;;;;;;20.54;43.29;101031.91;5031462;28;20387;-72
2022/07/18 04:50:21;;;;;;;1.63;1.30;;;;;;;20.59;43.45;101033.75;5032050;28;20391;-72
2022/07/18 04:52:47;;;;;;;1.58;1.15;;;;;;;20.63;43.25;101035.63;5037874;28;20963;-71
2022/07/18 04:55:14;;;;;;;1.80;1.30;;;;;;;20.64;43.15;101037.28;5026225;28;20490;-72
2022/07/18 04:57:40;;;;;;;2.65;1.40;;;;;;;20.52;43.08;101025.03;5028725;28;20434;-72
2022/07/18 05:00:09;;;;;;;1.97;1.13;;;;;;;20.47;43.35;101038.91;5031781;28;20434;-72
2022/07/18 05:02:34;;;;;;;1.77;1.17;;;;;;;20.45;43.32;101033.66;5028140;28;20426;-72
2022/07/18 05:05:00;;;;;;;1.38;1.20;;;;;;;20.45;43.33;101033.66;5031224;28;20419;-72
2022/07/18 05:07:25;;;;;;;3.93;1.23;;;;;;;20.47;43.14;101038.91;5031199;28;20413;-72
2022/07/18 05:09:51;;;;;;;1.93;1.10;;;;;;;20.51;43.15;101039.94;5031574;28;20486;-72
2022/07/18 05:12:18;;;;;;;3.07;1.17;;;;;;;20.50;42.99;101041.06;5029051;28;20763;-72
2022/07/18 05:14:43;;;;;;;4.38;1.20;;;;;;;20.51;43.15;101045.44;5031206;28;20414;-72
2022/07/18 05:17:08;;;;;;;1.50;1.10;;;;;;;20.57;42.94;101053.34;5029741;28;20403;-72
2022/07/18 05:19:34;;;;;;;2.60;1.40;;;;;;;20.62;42.89;101053.25;5030564;28;20422;-72
2022/07/18 05:21:59;;;;;;;2.00;1.20;;;;;;;20.70;42.94;101046.28;5031557;28;20716;-72
2022/07/18 05:24:24;;;;;;;4.30;1.10;;;;;;;20.76;42.87;101050.59;5031029;28;20406;-72
2022/07/18 05:26:49;;;;;;;2.03;1.20;;;;;;;20.76;42.99;101041.50;5031922;28;20399;-72
2022/07/18 05:29:15;;;;;;;2.33;1.10;;;;;;;20.73;43.06;101045.66;5031093;28;20809;-73
2022/07/18 05:31:41;;;;;;;3.70;1.13;;;;;;;20.66;43.12;101046.03;5031244;28;20403;-72
2022/07/18 05:34:06;;;;;;;2.13;1.30;;;;;;;20.67;43.38;101042.19;5031536;28;20767;-72
2022/07/18 05:36:32;;;;;;;3.15;1.50;;;;;;;20.68;43.33;101041.03;5031261;28;20456;-72
2022/07/18 05:38:57;;;;;;;4.77;1.33;;;;;;;20.76;43.01;101033.22;5030329;28;20387;-72
2022/07/18 05:41:22;;;;;;;5.70;1.30;;;;;;;20.84;43.21;101038.91;5031299;28;20413;-73
2022/07/18 05:43:48;;;;;;;4.50;1.20;;;;;;;20.95;42.88;101039.53;5030826;28;20411;-72
2022/07/18 05:46:13;;;;;;;2.92;1.30;;;;;;;21.01;43.00;101039.16;5032951;28;20411;-72
2022/07/18 05:48:39;;;;;;;1.07;1.00;;;;;;;21.06;42.88;101044.59;5029838;28;20494;-73
2022/07/18 05:51:06;;;;;;;1.40;1.30;;;;;;;21.10;43.05;101037.41;5046203;28;20418;-72
2022/07/18 05:53:31;;;;;;;2.08;1.60;;;;;;;21.16;42.89;101035.38;5031169;28;20441;-72
2022/07/18 05:55:56;;;;;;;2.30;1.27;;;;;;;21.21;42.37;101029.75;5031039;28;20392;-73
2022/07/18 05:58:22;;;;;;;3.17;1.30;;;;;;;21.27;41.89;101028.59;5030348;28;20505;-72
2022/07/18 06:00:47;;;;;;;3.90;1.80;;;;;;;21.34;41.75;101028.19;5031157;28;20867;-73
2022/07/18 06:03:12;;;;;;;1.73;1.43;;;;;;;21.34;41.66;101028.19;5031313;28;20395;-74
2022/07/18 06:05:38;;;;;;;4.93;1.50;;;;;;;21.40;41.70;101029.72;5030803;28;20435;-73
2022/07/18 06:08:04;;;;;;;1.67;1.00;;;;;;;21.48;41.67;101032.59;5030028;28;20782;-72
2022/07/18 06:10:29;;;;;;;1.80;1.10;;;;;;;21.46;41.35;101032.09;5030999;28;20400;-72
2022/07/18 06:12:55;;;;;;;2.47;1.13;;;;;;;21.47;40.69;101032.91;5030906;28;20391;-73
2022/07/18 06:15:20;;;;;;;5.10;1.37;;;;;;;21.51;40.54;101031.16;5030870;28;20391;-73
2022/07/18 06:17:45;;;;;;;2.13;1.00;;;;;;;21.53;40.25;101032.53;5030486;28;20859;-75
2022/07/18 06:20:11;;;;;;;2.70;1.13;;;;;;;21.58;39.85;101028.84;5030993;28;20482;-73
2022/07/18 06:22:37;;;;;;;1.07;0.93;;;;;;;21.63;39.92;101032.34;5029683;28;20388;-73
2022/07/18 06:25:03;;;;;;;3.00;1.35;;;;;;;21.68;39.73;101025.88;5047678;28;20415;-73
2022/07/18 06:27:29;;;;;;;6.10;1.60;;;;;;;21.70;39.63;101026.41;5033445;28;20461;-73
2022/07/18 06:29:54;;;;;;;2.90;1.43;;;;;;;21.68;39.36;101032.22;5033316;28;20402;-73
2022/07/18 06:32:19;;;;;;;3.00;1.23;;;;;;;21.71;39.32;101031.63;5034480;28;20387;-73
2022/07/18 06:34:44;;;;;;;3.17;1.40;;;;;;;21.75;39.33;101034.59;5033431;28;20821;-73
2022/07/18 06:37:10;;;;;;;2.92;1.40;;;;;;;21.80;39.22;101028.94;5031952;28;20501;-73
2022/07/18 06:39:35;;;;;;;3.53;1.10;;;;;;;21.83;39.51;101030.31;5028894;28;20442;-73
2022/07/18 06:42:00;;;;;;;1.50;1.10;;;;;;;21.87;39.79;101025.78;5033929;28;20391;-73
2022/07/18 06:44:26;;;;;;;2.87;1.27;;;;;;;21.88;40.06;101033.78;5030617;28;20457;-73
2022/07/18 06:46:52;;;;;;;4.83;1.07;;;;;;;21.92;40.18;101032.06;5048062;28;20407;-72
2022/07/18 06:49:17;;;;;;;2.10;1.08;;;;;;;21.99;39.96;101031.66;5033997;28;20469;-73
2022/07/18 06:51:43;;;;;;;1.67;1.10;;;;;;;22.05;39.85;101031.25;5034313;28;20403;-73
2022/07/18 06:54:08;;;;;;;2.70;1.40;;;;;;;22.09;39.34;101034.22;5033659;28;20395;-72
2022/07/18 06:56:33;;;;;;;8.47;2.30;;;;;;;22.06;41.74;101030.09;5033052;28;20429;-72
2022/07/18 06:58:58;;;;;;;3.20;1.50;;;;;;;22.07;43.93;101037.28;5033063;28;20406;-73
2022/07/18 07:01:24;;;;;;;2.90;1.33;;;;;;;22.05;43.16;101031.25;5033017;28;20503;-72
2022/07/18 07:03:50;;;;;;;2.38;1.10;;;;;;;22.06;43.55;101037.59;5032668;28;20757;-74
2022/07/18 07:06:15;;;;;;;2.40;0.97;;;;;;;22.12;42.77;101028.91;5032624;28;20419;-72
2022/07/18 07:08:41;;;;;;;3.05;1.25;;;;;;;22.18;42.31;101037.88;5037807;28;20776;-75
2022/07/18 07:11:07;;;;;;;2.33;1.30;;;;;;;22.21;42.71;101024.28;5033664;28;20390;-75
2022/07/18 07:13:32;;;;;;;3.58;1.10;;;;;;;22.27;41.67;101038.78;5031231;28;20411;-75
2022/07/18 07:15:57;;;;;;;1.63;1.27;;;;;;;22.31;40.60;101025.19;5033506;28;20398;-75
2022/07/18 07:18:23;;;;;;;2.53;0.97;;;;;;;22.35;39.79;101034.50;5033268;28;20395;-73
2022/07/18 07:20:48;;;;;;;3.58;1.38;;;;;;;22.38;40.11;101036.63;5030867;28;20893;-73
2022/07/18 07:23:13;;;;;;;2.37;1.00;;;;;;;22.41;40.29;101036.84;5031852;28;20418;-74
2022/07/18 07:25:39;;;;;;;2.27;1.20;;;;;;;22.44;40.14;101035.38;5033050;28;20415;-73
2022/07/18 07:28:05;;;;;;;4.20;1.10;;;;;;;22.52;39.16;101035.50;5033297;28;20462;-73
2022/07/18 07:30:32;;;;;;;1.90;1.10;;;;;;;22.56;39.07;101039.25;5032027;28;20418;-75
2022/07/18 07:32:58;;;;;;;3.70;1.20;;;;;;;22.58;38.41;101028.72;5014594;28;20414;-73
2022/07/18 07:35:24;;;;;;;3.35;0.90;;;;;;;22.60;38.49;101034.75;5032167;28;20411;-73
2022/07/18 07:37:55;;;;;;;4.60;1.23;;;;;;;22.70;38.17;101044.78;5033251;28;20750;-73
2022/07/18 07:40:22;;;;;;;0.93;0.93;;;;;;;22.77;38.38;101039.63;5033049;28;21173;-73
2022/07/18 07:42:47;;;;;;;1.42;0.93;;;;;;;22.81;38.17;101043.41;5033297;28;20458;-72
2022/07/18 07:45:13;;;;;;;1.02;0.93;;;;;;;22.83;37.90;101032.84;5032388;28;20422;-74
2022/07/18 07:47:39;;;;;;;3.10;1.20;;;;;;;;;;5031572;28;20486;-73
2022/07/18 07:50:06;;;;;;;2.35;0.85;;;;;;;22.91;38.08;101042.34;5032825;28;20394;-72
2022/07/18 07:52:32;;;;;;;5.15;1.10;;;;;;;22.95;38.32;101030.38;5032843;28;20405;-73
2022/07/18 07:54:57;;;;;;;1.83;1.27;;;;;;;23.02;38.22;101035.47;5032259;28;20415;-72
2022/07/18 07:57:22;;;;;;;3.20;1.13;;;;;;;23.07;38.00;101025.09;5032449;28;20418;-73
2022/07/18 07:59:48;;;;;;;2.00;0.80;;;;;;;23.14;38.14;101025.47;5033937;28;20920;-72
2022/07/18 08:02:14;;;;;;;2.13;1.30;;;;;;;23.17;38.02;101035.06;5032053;28;20391;-73
2022/07/18 08:04:40;;;;;;;4.20;1.40;;;;;;;23.25;37.85;101028.75;5032037;28;20465;-72
2022/07/18 08:07:05;;;;;;;1.30;0.90;;;;;;;23.32;38.29;101022.78;5032459;28;20407;-72
2022/07/18 08:09:30;;;;;;;2.00;0.93;;;;;;;23.38;37.91;101021.53;5030978;28;20469;-72
2022/07/18 08:11:56;;;;;;;1.45;1.00;;;;;;;23.43;37.21;101013.13;5032270;28;20394;-73
2022/07/18 08:14:21;;;;;;;1.30;1.07;;;;;;;23.48;37.51;101022.09;5031236;28;20416;-75
2022/07/18 08:16:46;;;;;;;2.70;1.03;;;;;;;23.54;37.23;101014.50;5031383;28;20403;-73
2022/07/18 08:19:12;;;;;;;2.23;0.87;;;;;;;23.63;37.36;101018.13;5032437;28;20418;-73
2022/07/18 08:21:37;;;;;;;3.33;0.87;;;;;;;23.70;37.38;101026.78;5032786;28;20482;-74
2022/07/18 08:24:03;;;;;;;2.00;1.40;;;;;;;23.74;37.35;101017.50;5031417;28;20423;-72
2022/07/18 08:26:28;;;;;;;4.05;1.25;;;;;;;23.80;37.45;101015.44;5031931;28;20464;-73
2022/07/18 08:28:53;;;;;;;1.90;0.90;;;;;;;23.88;37.55;101017.41;5032183;28;20811;-73
2022/07/18 08:31:19;;;;;;;2.03;0.80;;;;;;;23.99;36.92;101012.41;5032247;28;20399;-74
2022/07/18 08:33:45;;;;;;;1.70;1.10;;;;;;;24.07;36.92;101012.41;5031856;28;20411;-74
2022/07/18 08:36:10;;;;;;;3.10;1.00;;;;;;;24.18;36.77;101013.78;5032175;28;20778;-75
2022/07/18 08:38:35;;;;;;;2.72;1.05;;;;;;;24.27;36.49;101017.38;5032078;28;20569;-74
2022/07/18 08:41:01;;;;;;;1.75;1.08;;;;;;;24.36;36.33;101013.81;5031358;28;20870;-74
2022/07/18 08:43:26;;;;;;;3.90;1.60;;;;;;;24.44;36.04;101008.28;5031033;28;20482;-72
2022/07/18 08:45:57;;;;;;;2.53;0.80;;;;;;;24.56;35.62;101007.66;5031814;28;20474;-75
2022/07/18 08:48:22;;;;;;;1.85;1.00;;;;;;;24.73;35.59;101013.22;5031541;28;20391;-72
2022/07/18 08:50:48;;;;;;;5.20;0.98;;;;;;;24.88;35.46;101003.59;5033294;28;20920;-74
2022/07/18 08:53:15;;;;;;;2.95;1.08;;;;;;;25.02;34.59;101007.03;5030961;28;20407;-74
2022/07/18 08:55:41;;;;;;;1.20;0.93;;;;;;;25.11;34.91;100996.72;5031715;28;20735;-74
2022/07/18 08:58:07;;;;;;;3.13;0.95;;;;;;;25.22;34.58;100987.75;5030500;28;20391;-74
2022/07/18 09:00:34;;;;;;;1.97;1.30;;;;;;;25.38;34.46;100989.97;5031709;28;20771;-74
2022/07/18 09:03:00;;;;;;;3.03;0.90;;;;;;;25.51;34.47;100989.78;5031155;28;20482;-74
2022/07/18 09:05:26;;;;;;;3.60;0.88;;;;;;;25.65;33.77;100989.59;5031545;28;20472;-74
2022/07/18 09:08:10;;;;;;;3.43;1.20;;;;;;;25.78;34.25;100988.53;5039441;28;21233;-74
2022/07/18 09:10:57;;;;;;;4.00;1.20;;;;;;;25.95;33.89;100994.00;5030350;28;20488;-74
2022/07/18 09:13:29;;;;;;;3.50;2.37;;;;;;;26.04;34.07;100989.22;5022655;28;20400;-74
2022/07/18 09:16:05;;;;;;;2.35;0.90;;;;;;;26.19;33.84;100988.66;5030251;28;20398;-74
2022/07/18 09:18:34;;;;;;;1.38;1.25;;;;;;;26.36;33.54;100986.91;5031382;28;20898;-74
2022/07/18 09:21:20;;;;;;;1.00;0.90;;;;;;;26.49;33.31;100985.84;5031568;28;20435;-74
2022/07/18 09:23:48;;;;;;;3.40;0.82;;;;;;;26.61;32.94;100991.47;5030947;28;20419;-74
2022/07/18 09:26:36;;;;;;;1.43;0.80;;;;;;;26.82;32.77;100986.72;5031420;28;20422;-74
2022/07/18 09:29:02;;;;;;;1.25;1.15;;;;;;;26.95;32.18;100988.41;5031221;28;20441;-72
2022/07/18 09:31:28;;;;;;;4.78;0.90;;;;;;;27.03;31.58;100987.53;5029576;28;21433;-74
2022/07/18 09:33:59;;;;;;;2.40;1.03;;;;;;;27.18;31.53;100984.09;5030765;28;20549;-74
2022/07/18 09:36:26;;;;;;;0.88;0.88;;;;;;;27.34;31.46;100985.06;5031521;28;20395;-74
2022/07/18 09:38:52;;;;;;;2.80;0.77;;;;;;;27.50;31.25;100988.00;5031279;28;20413;-71
2022/07/18 09:41:32;;;;;;;1.15;0.90;;;;;;;27.66;31.22;100986.16;5034299;28;20391;-74
2022/07/18 09:43:58;;;;;;;1.13;0.80;;;;;;;27.85;31.23;100985.59;5030137;28;20407;-74
2022/07/18 09:46:23;;;;;;;2.13;0.88;;;;;;;27.99;31.08;100991.63;5031025;28;20415;-74
2022/07/18 09:49:08;;;;;;;1.70;0.80;;;;;;;28.19;31.07;100981.56;5030934;28;20388;-72
2022/07/18 09:51:33;;;;;;;2.20;0.93;;;;;;;28.44;30.43;100979.53;5031372;28;20942;-74
2022/07/18 09:54:01;;;;;;;2.47;0.80;;;;;;;28.67;30.56;100975.06;5029841;28;20569;-74
2022/07/18 09:56:27;;;;;;;1.50;0.87;;;;;;;28.82;30.72;100968.72;5031279;28;20395;-72
2022/07/18 09:58:57;;;;;;;1.40;0.70;;;;;;;29.09;30.82;100973.50;5042825;28;20811;-74
2022/07/18 10:01:23;;;;;;;3.88;1.00;;;;;;;29.38;30.05;100963.91;5035166;28;20817;-74
2022/07/18 10:03:49;;;;;;;1.95;0.80;;;;;;;29.70;30.19;100964.75;5034098;28;20415;-75
2022/07/18 10:06:16;;;;;;;5.15;1.13;;;;;;;30.36;29.36;100970.34;5034624;28;20964;-74
2022/07/18 10:08:41;;;;;;;1.13;1.02;;;;;;;30.60;29.05;100961.69;5034141;28;20403;-75
2022/07/18 10:11:07;;;;;;;3.17;0.80;;;;;;;30.97;28.37;100970.47;5034796;28;20379;-74
2022/07/18 10:13:35;;;;;;;1.40;0.80;;;;;;;31.69;27.38;100977.00;5034101;28;20896;-72
2022/07/18 10:16:01;;;;;;;2.65;1.08;;;;;;;32.62;26.79;100976.44;5035173;28;20509;-72
2022/07/18 10:18:28;;;;;;;1.80;0.90;;;;;;;33.60;24.72;100968.28;5034796;28;20391;-72
2022/07/18 10:20:58;;;;;;;2.60;1.13;;;;;;;34.46;23.48;100966.91;5049427;28;20395;-71
2022/07/18 10:23:33;;;;;;;3.97;0.80;;;;;;;35.42;22.63;100969.69;5033379;28;20529;-71
2022/07/18 10:26:19;;;;;;;5.30;1.38;;;;;;;36.33;21.10;100965.19;5033940;28;20455;-71
2022/07/18 10:28:59;;;;;;;5.15;0.80;;;;;;;37.34;20.17;100962.34;5031332;28;20489;-70
2022/07/18 10:31:29;;;;;;;2.40;0.95;;;;;;;38.08;19.26;100969.41;5035314;28;20391;-72
2022/07/18 10:34:07;;;;;;;0.70;0.70;;;;;;;38.57;18.68;100964.41;5023426;28;20407;-70
2022/07/18 10:36:35;;;;;;;1.30;0.80;;;;;;;38.83;18.19;100973.00;5033731;28;20402;-70
2022/07/18 10:39:14;;;;;;;2.83;1.17;;;;;;;39.14;17.49;100953.94;5034400;28;20391;-71
2022/07/18 10:41:39;;;;;;;2.30;0.83;;;;;;;39.79;17.36;100957.38;5034311;28;20870;-71
2022/07/18 10:44:23;;;;;;;1.57;0.73;;;;;;;40.18;16.49;100959.53;5033717;28;20406;-71
2022/07/18 10:47:05;;;;;;;2.40;0.82;;;;;;;40.69;16.15;100961.75;5033418;28;20887;-71
2022/07/18 10:50:00;;;;;;;2.70;1.25;;;;;;;41.24;15.89;100962.94;5049035;28;20893;-70
2022/07/18 10:52:25;;;;;;;2.50;0.80;;;;;;;41.38;15.63;100954.09;5021303;28;20399;-70
2022/07/18 10:55:03;;;;;;;2.47;0.80;;;;;;;41.39;15.38;100952.88;5033965;28;20403;-71
2022/07/18 10:57:33;;;;;;;1.10;1.02;;;;;;;41.76;15.22;100949.44;5021572;28;20413;-71
2022/07/18 11:00:14;;;;;;;0.98;0.90;;;;;;;42.27;14.57;100942.00;5033490;28;20392;-70
2022/07/18 11:02:47;;;;;;;0.88;0.80;;;;;;;42.47;14.70;100930.44;5033978;28;20391;-71
2022/07/18 11:05:25;;;;;;;1.50;0.85;;;;;;;42.83;13.96;100933.03;5033821;28;20400;-71
2022/07/18 11:07:59;;;;;;;0.70;0.70;;;;;;;42.81;13.84;100930.63;5033349;28;20419;-71
2022/07/18 11:10:44;;;;;;;1.55;0.90;;;;;;;42.63;13.78;100929.59;5032766;28;20720;-70
2022/07/18 11:13:24;;;;;;;2.13;0.98;;;;;;;42.74;13.82;100930.88;5033727;28;20387;-72
2022/07/18 11:16:02;;;;;;;2.90;0.90;;;;;;;43.16;13.43;100933.63;5032292;28;20530;-70
2022/07/18 11:18:27;;;;;;;2.15;0.90;;;;;;;43.69;13.46;100929.81;5033592;28;20870;-71
2022/07/18 11:20:52;;;;;;;2.95;1.00;;;;;;;43.92;13.01;100931.47;5033628;28;20395;-70
2022/07/18 11:23:21;;;;;;;1.50;0.73;;;;;;;43.97;13.04;100930.09;5034196;28;20391;-70
2022/07/18 11:25:49;;;;;;;2.53;0.90;;;;;;;44.04;12.69;100929.81;5033128;28;20476;-70
2022/07/18 11:28:15;;;;;;;2.10;0.80;;;;;;;44.22;12.63;100925.09;5032688;28;20411;-70
2022/07/18 11:30:42;;;;;;;3.47;0.90;;;;;;;44.32;12.32;100923.09;5032108;28;20403;-70
2022/07/18 11:33:24;;;;;;;3.50;0.90;;;;;;;44.61;12.49;100917.09;5030316;28;20411;-71